createdAt,value
2018-08-22T00:00:26.359Z,23.16
2018-08-22T00:02:54.963Z,23.11
2018-08-22T00:05:23.650Z,23.01
2018-08-22T00:07:52.345Z,23.14
2018-08-22T00:10:21.333Z,23.20
2018-08-22T00:12:50.602Z,23.14
2018-08-22T00:15:19.038Z,23.06
2018-08-22T00:17:47.530Z,23.06
2018-08-22T00:20:16.280Z,22.95
2018-08-22T00:22:44.959Z,22.96
2018-08-22T00:25:13.856Z,23.00
2018-08-22T00:27:42.431Z,22.96
2018-08-22T00:30:10.673Z,22.96
2018-08-22T00:32:39.302Z,22.99
2018-08-22T00:35:07.928Z,22.99
2018-08-22T00:37:36.732Z,23.02
2018-08-22T00:40:05.128Z,22.96
2018-08-22T00:42:33.855Z,22.92
2018-08-22T00:45:02.596Z,22.91
2018-08-22T00:47:31.916Z,22.83
2018-08-22T00:50:02.385Z,22.73
2018-08-22T00:52:33.116Z,22.58
2018-08-22T00:55:02.274Z,22.41
2018-08-22T00:57:31.226Z,22.28
2018-08-22T00:59:59.542Z,22.21
2018-08-22T01:02:28.161Z,22.13
2018-08-22T01:04:56.625Z,22.08
2018-08-22T01:07:25.032Z,22.05
2018-08-22T01:09:53.256Z,22.13
2018-08-22T01:12:21.850Z,22.08
2018-08-22T01:14:50.059Z,22.05
2018-08-22T01:17:18.332Z,21.96
2018-08-22T01:19:46.665Z,21.97
2018-08-22T01:22:14.900Z,21.95
2018-08-22T01:24:43.119Z,21.87
2018-08-22T01:27:16.210Z,21.83
2018-08-22T01:29:44.483Z,21.88
2018-08-22T01:32:12.970Z,21.90
2018-08-22T01:34:41.345Z,21.89
2018-08-22T01:37:09.596Z,21.95
2018-08-22T01:39:38.505Z,21.94
2018-08-22T01:42:06.995Z,21.91
2018-08-22T01:44:35.316Z,21.78
2018-08-22T01:47:03.709Z,21.71
2018-08-22T01:49:31.947Z,21.65
2018-08-22T01:52:00.531Z,21.68
2018-08-22T01:54:28.887Z,21.67
2018-08-22T01:56:57.166Z,21.70
2018-08-22T01:59:26.369Z,21.67
2018-08-22T02:01:54.612Z,21.55
2018-08-22T02:04:23.116Z,21.54
2018-08-22T02:06:51.351Z,21.54
2018-08-22T02:09:19.601Z,21.58
2018-08-22T02:11:47.876Z,21.58
2018-08-22T02:14:16.604Z,21.55
2018-08-22T02:16:45.239Z,21.56
2018-08-22T02:19:13.418Z,21.53
2018-08-22T02:21:41.865Z,21.52
2018-08-22T02:24:10.473Z,21.53
2018-08-22T02:26:38.708Z,21.47
2018-08-22T02:29:07.294Z,21.47
2018-08-22T02:31:35.604Z,21.44
2018-08-22T02:34:03.832Z,21.39
2018-08-22T02:36:32.217Z,21.29
2018-08-22T02:39:00.418Z,21.23
2018-08-22T02:41:28.633Z,21.21
2018-08-22T02:43:56.855Z,21.18
2018-08-22T02:46:25.473Z,21.18
2018-08-22T02:48:53.757Z,21.21
2018-08-22T02:51:22.424Z,21.26
2018-08-22T02:53:50.913Z,21.19
2018-08-22T02:56:19.397Z,21.15
2018-08-22T02:58:47.670Z,21.14
2018-08-22T03:01:16.099Z,21.07
2018-08-22T03:03:44.362Z,21.02
2018-08-22T03:06:12.610Z,20.98
2018-08-22T03:08:41.632Z,20.93
2018-08-22T03:11:10.177Z,20.86
2018-08-22T03:13:39.312Z,20.88
2018-08-22T03:16:08.338Z,20.90
2018-08-22T03:18:36.694Z,20.87
2018-08-22T03:21:04.913Z,20.77
2018-08-22T03:23:33.493Z,20.76
2018-08-22T03:26:02.110Z,20.82
2018-08-22T03:28:30.364Z,20.82
2018-08-22T03:30:58.579Z,20.79
2018-08-22T03:33:27.170Z,20.79
2018-08-22T03:35:55.400Z,20.69
2018-08-22T03:38:24.228Z,20.67
2018-08-22T03:40:52.842Z,20.62
2018-08-22T03:43:21.071Z,20.61
2018-08-22T03:45:49.349Z,20.60
2018-08-22T03:48:17.944Z,20.57
2018-08-22T03:50:46.164Z,20.52
2018-08-22T03:53:14.388Z,20.53
2018-08-22T03:55:42.657Z,20.57
2018-08-22T03:58:11.256Z,20.53
2018-08-22T04:00:40.030Z,20.51
2018-08-22T04:03:08.619Z,20.50
2018-08-22T04:05:36.997Z,20.47
2018-08-22T04:08:05.865Z,20.47
2018-08-22T04:10:34.190Z,20.44
2018-08-22T04:13:02.389Z,20.48
2018-08-22T04:15:30.617Z,20.49
2018-08-22T04:17:59.227Z,20.43
2018-08-22T04:20:27.468Z,20.39
2018-08-22T04:22:55.750Z,20.35
2018-08-22T04:25:24.372Z,20.30
2018-08-22T04:27:52.704Z,20.32
2018-08-22T04:30:21.013Z,20.35
2018-08-22T04:32:49.512Z,20.40
2018-08-22T04:35:18.029Z,20.38
2018-08-22T04:37:46.248Z,20.36
2018-08-22T04:40:14.761Z,20.31
2018-08-22T04:42:42.978Z,20.32
2018-08-22T04:45:11.304Z,20.31
2018-08-22T04:47:39.964Z,20.30
2018-08-22T04:50:08.145Z,20.30
2018-08-22T04:52:37.005Z,20.33
2018-08-22T04:55:05.560Z,20.33
2018-08-22T04:57:34.297Z,20.40
2018-08-22T05:00:02.819Z,20.55
2018-08-22T05:02:31.285Z,20.66
2018-08-22T05:04:59.485Z,20.69
2018-08-22T05:07:28.455Z,20.68
2018-08-22T05:09:57.036Z,20.74
2018-08-22T05:12:25.801Z,20.87
2018-08-22T05:17:29.985Z,20.93
2018-08-22T05:19:58.951Z,21.02
2018-08-22T05:22:27.197Z,21.12
2018-08-22T05:24:56.292Z,21.15
2018-08-22T05:27:25.007Z,21.14
2018-08-22T05:29:53.780Z,21.09
2018-08-22T05:32:22.333Z,21.10
2018-08-22T05:34:51.547Z,21.17
2018-08-22T05:37:20.081Z,21.33
2018-08-22T05:39:48.820Z,21.35
2018-08-22T05:42:17.499Z,21.50
2018-08-22T05:44:46.834Z,21.60
2018-08-22T05:47:15.314Z,21.62
2018-08-22T05:49:43.785Z,21.88
2018-08-22T05:52:12.152Z,21.88
2018-08-22T05:54:40.386Z,21.98
2018-08-22T05:57:09.308Z,22.27
2018-08-22T05:59:37.658Z,22.32
2018-08-22T06:02:06.272Z,22.42
2018-08-22T06:04:34.482Z,22.44
2018-08-22T06:07:02.777Z,22.48
2018-08-22T06:09:31.024Z,22.61
2018-08-22T06:11:59.382Z,22.74
2018-08-22T06:14:28.051Z,22.59
2018-08-22T06:16:56.430Z,22.78
2018-08-22T06:19:25.295Z,22.82
2018-08-22T06:21:54.222Z,22.96
2018-08-22T06:24:22.496Z,23.02
2018-08-22T06:26:51.117Z,23.32
2018-08-22T06:29:19.500Z,23.32
2018-08-22T06:31:47.792Z,23.28
2018-08-22T06:34:17.101Z,23.49
2018-08-22T06:36:45.694Z,23.57
2018-08-22T06:39:13.998Z,23.57
2018-08-22T06:41:43.929Z,23.70
2018-08-22T06:44:12.906Z,23.78
2018-08-22T06:46:42.494Z,23.87
2018-08-22T06:49:12.432Z,24.02
2018-08-22T06:51:40.781Z,24.09
2018-08-22T06:54:09.901Z,23.96
2018-08-22T06:56:38.112Z,24.36
2018-08-22T06:59:07.884Z,24.52
2018-08-22T07:01:36.443Z,24.55
2018-08-22T07:04:05.108Z,24.68
2018-08-22T07:06:33.621Z,24.53
2018-08-22T07:09:01.862Z,24.66
2018-08-22T07:11:30.516Z,24.86
2018-08-22T07:13:59.445Z,24.89
2018-08-22T07:16:27.623Z,24.82
2018-08-22T07:18:55.959Z,24.93
2018-08-22T07:21:24.419Z,25.28
2018-08-22T07:23:52.637Z,25.37
2018-08-22T07:26:21.525Z,25.01
2018-08-22T07:28:49.962Z,25.21
2018-08-22T07:31:18.588Z,25.36
2018-08-22T07:33:46.799Z,25.54
2018-08-22T07:36:14.982Z,25.65
2018-08-22T07:38:43.233Z,25.46
2018-08-22T07:41:11.830Z,25.71
2018-08-22T07:43:40.228Z,25.99
2018-08-22T07:46:08.913Z,25.98
2018-08-22T07:48:37.550Z,26.32
2018-08-22T07:51:06.497Z,26.17
2018-08-22T07:53:34.728Z,26.20
2018-08-22T07:56:03.114Z,26.48
2018-08-22T07:58:31.661Z,26.65
2018-08-22T08:00:59.965Z,26.53
2018-08-22T08:03:28.464Z,26.96
2018-08-22T08:05:57.030Z,27.16
2018-08-22T08:08:25.541Z,27.20
2018-08-22T08:10:55.121Z,27.26
2018-08-22T08:13:27.195Z,27.06
2018-08-22T08:15:55.695Z,27.23
2018-08-22T08:18:23.938Z,27.69
2018-08-22T08:20:52.164Z,28.00
2018-08-22T08:23:20.404Z,28.19
2018-08-22T08:25:48.596Z,28.11
2018-08-22T08:28:18.337Z,27.92
2018-08-22T08:30:47.112Z,27.87
2018-08-22T08:33:15.339Z,28.22
2018-08-22T08:35:43.620Z,27.97
2018-08-22T08:38:12.116Z,28.31
2018-08-22T08:40:40.339Z,28.43
2018-08-22T08:43:08.855Z,28.69
2018-08-22T08:45:38.623Z,28.90
2018-08-22T08:48:06.931Z,28.52
2018-08-22T08:50:35.194Z,29.11
2018-08-22T08:53:04.413Z,29.38
2018-08-22T08:55:33.020Z,29.20
2018-08-22T08:58:01.364Z,29.25
2018-08-22T09:00:29.601Z,29.25
2018-08-22T09:02:57.930Z,29.23
2018-08-22T09:05:27.436Z,29.09
2018-08-22T09:07:55.807Z,29.42
2018-08-22T09:10:24.498Z,29.82
2018-08-22T09:12:53.078Z,29.73
2018-08-22T09:15:21.374Z,30.13
2018-08-22T09:17:50.605Z,30.51
2018-08-22T09:20:19.427Z,30.34
2018-08-22T09:22:47.934Z,30.58
2018-08-22T09:25:16.185Z,30.57
2018-08-22T09:27:44.638Z,31.04
2018-08-22T09:30:13.176Z,31.18
2018-08-22T09:32:41.770Z,30.99
2018-08-22T09:35:10.059Z,31.28
2018-08-22T09:37:39.015Z,31.14
2018-08-22T09:40:08.662Z,31.47
2018-08-22T09:42:36.897Z,31.70
2018-08-22T09:45:05.761Z,31.52
2018-08-22T09:47:34.671Z,31.96
2018-08-22T09:50:03.075Z,31.93
2018-08-22T09:52:31.601Z,32.31
2018-08-22T09:55:03.973Z,32.27
2018-08-22T09:57:32.694Z,32.49
2018-08-22T10:00:01.104Z,32.29
2018-08-22T10:02:30.037Z,32.61
2018-08-22T10:04:59.703Z,32.70
2018-08-22T10:07:28.073Z,32.95
2018-08-22T10:09:56.542Z,32.91
2018-08-22T10:12:24.777Z,33.33
2018-08-22T10:14:53.475Z,33.47
2018-08-22T10:17:21.788Z,33.30
2018-08-22T10:19:50.028Z,32.87
2018-08-22T10:22:18.815Z,32.82
2018-08-22T10:24:47.333Z,33.36
2018-08-22T10:27:16.173Z,33.03
2018-08-22T10:29:44.533Z,33.03
2018-08-22T10:32:13.114Z,33.49
2018-08-22T10:34:42.109Z,34.11
2018-08-22T10:37:10.722Z,34.21
2018-08-22T10:39:39.210Z,34.16
2018-08-22T10:42:08.203Z,34.76
2018-08-22T10:44:36.586Z,34.91
2018-08-22T10:47:05.288Z,35.32
2018-08-22T10:49:33.932Z,35.46
2018-08-22T10:52:02.163Z,35.48
2018-08-22T10:54:30.489Z,36.29
2018-08-22T10:56:58.730Z,35.90
2018-08-22T10:59:27.472Z,36.31
2018-08-22T11:01:55.984Z,36.28
2018-08-22T11:04:25.286Z,36.61
2018-08-22T11:06:55.622Z,36.59
2018-08-22T11:09:25.117Z,36.67
2018-08-22T11:11:53.428Z,36.90
2018-08-22T11:14:21.829Z,36.78
2018-08-22T11:16:50.542Z,36.26
2018-08-22T11:19:19.161Z,35.62
2018-08-22T11:22:04.786Z,34.94
2018-08-22T11:24:50.301Z,36.02
2018-08-22T11:27:35.765Z,36.26
2018-08-22T11:30:21.181Z,36.67
2018-08-22T11:33:06.608Z,37.39
2018-08-22T11:35:33.167Z,37.15
2018-08-22T11:38:02.716Z,36.73
2018-08-22T11:40:31.240Z,36.89
2018-08-22T11:42:59.457Z,36.96
2018-08-22T11:45:27.742Z,36.78
2018-08-22T11:47:56.163Z,37.61
2018-08-22T11:50:24.377Z,38.38
2018-08-22T11:52:52.900Z,38.51
2018-08-22T11:55:21.457Z,37.73
2018-08-22T11:57:49.675Z,37.34
2018-08-22T12:00:18.202Z,37.11
2018-08-22T12:02:46.671Z,37.47
2018-08-22T12:05:15.213Z,37.50
2018-08-22T12:07:46.377Z,38.03
2018-08-22T12:10:14.727Z,37.72
2018-08-22T12:12:43.378Z,36.81
2018-08-22T12:15:11.651Z,36.13
2018-08-22T12:17:40.182Z,36.30
2018-08-22T12:20:08.500Z,36.94
2018-08-22T12:22:37.192Z,36.84
2018-08-22T12:25:06.161Z,36.23
2018-08-22T12:27:34.667Z,35.90
2018-08-22T12:30:03.211Z,35.53
2018-08-22T12:32:31.564Z,35.52
2018-08-22T12:35:00.836Z,35.07
2018-08-22T12:37:29.541Z,35.03
2018-08-22T12:39:57.892Z,34.90
2018-08-22T12:42:26.181Z,35.27
2018-08-22T12:44:54.906Z,35.97
2018-08-22T12:47:23.376Z,36.13
2018-08-22T12:49:52.034Z,36.06
2018-08-22T12:52:20.568Z,35.59
2018-08-22T12:54:49.162Z,35.60
2018-08-22T12:57:17.553Z,36.24
2018-08-22T12:59:45.680Z,36.99
2018-08-22T13:02:14.596Z,36.33
2018-08-22T13:04:43.102Z,35.82
2018-08-22T13:07:12.404Z,35.84
2018-08-22T13:09:40.669Z,35.30
2018-08-22T13:12:09.009Z,35.07
2018-08-22T13:14:37.479Z,34.81
2018-08-22T13:17:05.925Z,35.15
2018-08-22T13:19:34.233Z,35.42
2018-08-22T13:22:02.495Z,35.72
2018-08-22T13:24:31.318Z,37.50
2018-08-22T13:26:59.879Z,39.19
2018-08-22T13:29:29.194Z,39.29
2018-08-22T13:31:57.585Z,37.69
2018-08-22T13:34:25.931Z,39.22
2018-08-22T13:36:54.685Z,39.72
2018-08-22T13:39:23.777Z,40.88
2018-08-22T13:41:52.192Z,40.35
2018-08-22T13:44:20.385Z,41.25
2018-08-22T13:46:49.012Z,42.75
2018-08-22T13:49:17.600Z,41.57
2018-08-22T13:51:45.821Z,39.94
2018-08-22T13:54:14.280Z,40.07
2018-08-22T13:56:42.506Z,42.63
2018-08-22T13:59:11.396Z,42.74
2018-08-22T14:01:40.892Z,41.43
2018-08-22T14:04:09.522Z,39.68
2018-08-22T14:06:37.728Z,38.53
2018-08-22T14:09:08.657Z,38.33
2018-08-22T14:11:37.939Z,37.94
2018-08-22T14:14:06.423Z,38.23
2018-08-22T14:16:35.028Z,38.36
2018-08-22T14:19:04.428Z,37.58
2018-08-22T14:21:32.665Z,37.39
2018-08-22T14:24:02.713Z,38.38
2018-08-22T14:26:31.388Z,41.51
2018-08-22T14:28:59.662Z,41.20
2018-08-22T14:31:27.848Z,40.12
2018-08-22T14:33:56.332Z,38.43
2018-08-22T14:36:24.781Z,37.54
2018-08-22T14:38:53.921Z,36.89
2018-08-22T14:41:22.702Z,36.51
2018-08-22T14:43:51.783Z,36.29
2018-08-22T14:46:20.144Z,36.01
2018-08-22T14:48:49.153Z,35.77
2018-08-22T14:51:17.453Z,35.80
2018-08-22T14:53:46.069Z,35.58
2018-08-22T14:56:14.712Z,34.86
2018-08-22T14:58:43.511Z,34.35
2018-08-22T15:01:12.035Z,34.17
2018-08-22T15:03:40.209Z,33.98
2018-08-22T15:06:08.542Z,33.90
2018-08-22T15:08:37.568Z,33.76
2018-08-22T15:11:06.483Z,33.81
2018-08-22T15:13:34.979Z,33.53
2018-08-22T15:16:03.485Z,33.42
2018-08-22T15:18:31.801Z,33.34
2018-08-22T15:21:00.235Z,33.20
2018-08-22T15:23:28.480Z,33.02
2018-08-22T15:25:56.809Z,32.89
2018-08-22T15:28:25.233Z,32.96
2018-08-22T15:30:53.512Z,33.00
2018-08-22T15:33:21.768Z,32.94
2018-08-22T15:35:50.253Z,31.62
2018-08-22T15:38:18.844Z,30.84
2018-08-22T15:40:47.415Z,30.27
2018-08-22T15:43:17.839Z,29.82
2018-08-22T15:45:46.473Z,29.53
2018-08-22T15:48:18.613Z,29.70
2018-08-22T15:50:47.147Z,29.32
2018-08-22T15:53:16.525Z,29.21
2018-08-22T15:55:45.460Z,29.04
2018-08-22T15:58:14.385Z,28.95
2018-08-22T16:00:45.047Z,28.83
2018-08-22T16:03:13.355Z,28.63
2018-08-22T16:05:42.662Z,28.37
2018-08-22T16:08:11.498Z,28.51
2018-08-22T16:10:40.309Z,28.60
2018-08-22T16:13:18.755Z,28.60
2018-08-22T16:15:49.626Z,28.52
2018-08-22T16:18:24.648Z,28.62
2018-08-22T16:20:53.834Z,28.72
2018-08-22T16:23:25.771Z,28.78
2018-08-22T16:25:54.678Z,28.98
2018-08-22T16:28:23.611Z,28.90
2018-08-22T16:30:57.768Z,28.92
2018-08-22T16:33:23.277Z,28.76
2018-08-22T16:35:51.573Z,28.80
2018-08-22T16:38:20.289Z,28.97
2018-08-22T16:40:51.330Z,28.84
2018-08-22T16:43:41.372Z,29.29
2018-08-22T16:46:12.074Z,30.07
2018-08-22T16:48:41.732Z,30.19
2018-08-22T16:51:10.229Z,30.74
2018-08-22T16:53:38.597Z,30.72
2018-08-22T16:56:06.886Z,31.82
2018-08-22T16:58:35.840Z,32.25
2018-08-22T17:01:04.289Z,31.87
2018-08-22T17:03:39.473Z,31.37
2018-08-22T17:06:13.255Z,31.71
2018-08-22T17:08:41.541Z,33.05
2018-08-22T17:11:11.383Z,33.99
2018-08-22T17:13:51.392Z,34.68
2018-08-22T17:16:20.367Z,35.36
2018-08-22T17:18:48.626Z,36.55
2018-08-22T17:26:15.104Z,36.46
2018-08-22T17:28:47.508Z,35.40
2018-08-22T17:31:17.100Z,34.46
2018-08-22T17:33:51.640Z,33.18
2018-08-22T17:36:20.109Z,32.26
2018-08-22T17:38:50.635Z,31.67
2018-08-22T17:41:21.571Z,31.06
2018-08-22T17:44:06.983Z,30.78
2018-08-22T17:46:38.361Z,30.60
2018-08-22T17:49:07.847Z,30.45
2018-08-22T17:52:09.620Z,30.26
2018-08-22T17:54:37.977Z,30.40
2018-08-22T17:57:25.739Z,29.92
2018-08-22T17:59:57.193Z,29.95
2018-08-22T18:02:25.745Z,29.88
2018-08-22T18:05:01.297Z,29.59
2018-08-22T18:07:29.816Z,29.51
2018-08-22T18:09:58.190Z,29.03
2018-08-22T18:12:28.066Z,28.73
2018-08-22T18:15:00.445Z,28.45
2018-08-22T18:17:28.891Z,28.29
2018-08-22T18:19:57.157Z,28.38
2018-08-22T18:22:32.579Z,28.18
2018-08-22T18:25:01.795Z,27.99
2018-08-22T18:27:30.801Z,27.81
2018-08-22T18:29:59.284Z,27.74
2018-08-22T18:32:28.102Z,27.54
2018-08-22T18:35:13.577Z,27.40
2018-08-22T18:37:42.514Z,27.22
2018-08-22T18:40:18.070Z,27.11
2018-08-22T18:42:55.702Z,26.94
2018-08-22T18:45:24.807Z,26.89
2018-08-22T18:47:53.064Z,26.94
2018-08-22T18:50:21.395Z,26.91
2018-08-22T18:52:53.215Z,26.81
2018-08-22T18:55:24.317Z,26.66
2018-08-22T18:57:53.220Z,26.55
2018-08-22T19:00:22.744Z,26.43
2018-08-22T19:02:53.249Z,26.34
2018-08-22T19:05:31.888Z,26.47
2018-08-22T19:08:12.110Z,26.48
2018-08-22T19:10:42.040Z,26.32
2018-08-22T19:13:25.767Z,26.21
2018-08-22T19:15:57.748Z,26.08
2018-08-22T19:18:26.265Z,26.01
2018-08-22T19:20:58.092Z,25.93
2018-08-22T19:23:26.767Z,25.86
2018-08-22T19:25:56.084Z,25.83
2018-08-22T19:28:24.523Z,25.73
2018-08-22T19:30:53.807Z,25.70
2018-08-22T19:33:23.564Z,25.63
2018-08-22T19:35:51.943Z,25.65
2018-08-22T19:38:27.077Z,25.56
2018-08-22T19:40:56.366Z,25.46
2018-08-22T19:43:25.145Z,25.37
2018-08-22T19:45:53.566Z,25.31
2018-08-22T19:48:24.402Z,25.26
2018-08-22T19:50:52.998Z,25.23
2018-08-22T19:53:21.356Z,25.20
2018-08-22T19:55:49.772Z,25.12
2018-08-22T19:58:28.144Z,25.16
2018-08-22T20:00:58.100Z,25.10
2018-08-22T20:03:31.340Z,25.05
2018-08-22T20:06:00.311Z,24.98
2018-08-22T20:08:32.934Z,24.97
2018-08-22T20:11:01.511Z,24.93
2018-08-22T20:13:51.236Z,24.89
2018-08-22T20:16:20.691Z,24.85
2018-08-22T20:18:56.427Z,24.80
2018-08-22T20:21:34.083Z,24.76
2018-08-22T20:24:03.905Z,24.69
2018-08-22T20:26:32.552Z,24.65
2018-08-22T20:29:02.587Z,24.63
2018-08-22T20:31:31.965Z,24.59
2018-08-22T20:34:09.475Z,24.63
2018-08-22T20:36:37.861Z,24.60
2018-08-22T20:39:10.897Z,24.52
2018-08-22T20:41:40.175Z,24.38
2018-08-22T20:44:12.790Z,24.34
2018-08-22T20:46:42.549Z,24.36
2018-08-22T20:49:10.909Z,24.25
2018-08-22T20:51:39.402Z,24.18
2018-08-22T20:54:09.437Z,24.17
2018-08-22T20:56:48.529Z,24.13
2018-08-22T20:59:18.276Z,24.17
2018-08-22T21:01:52.220Z,24.19
2018-08-22T21:04:20.611Z,24.17
2018-08-22T21:06:49.134Z,24.07
2018-08-22T21:09:17.443Z,23.98
2018-08-22T21:11:45.813Z,23.92
2018-08-22T21:14:14.309Z,23.91
2018-08-22T21:16:43.015Z,23.91
2018-08-22T21:19:11.351Z,23.84
2018-08-22T21:21:39.852Z,23.76
2018-08-22T21:24:08.368Z,23.73
2018-08-22T21:26:44.795Z,23.81
2018-08-22T21:29:13.790Z,23.83
2018-08-22T21:31:41.996Z,23.80
2018-08-22T21:34:16.049Z,23.68
2018-08-22T21:36:45.925Z,23.63
2018-08-22T21:39:19.923Z,23.67
2018-08-22T21:41:48.640Z,23.67
2018-08-22T21:44:19.606Z,23.71
2018-08-22T21:47:00.188Z,23.72
2018-08-22T21:49:29.090Z,23.74
2018-08-22T21:51:58.651Z,23.65
2018-08-22T21:54:28.000Z,23.61
2018-08-22T21:56:56.297Z,23.47
2018-08-22T21:59:24.542Z,23.37
2018-08-22T22:01:58.429Z,23.29
2018-08-22T22:04:34.701Z,23.22
2018-08-22T22:07:04.386Z,23.16
2018-08-22T22:09:33.865Z,23.14
2018-08-22T22:12:02.693Z,23.14
2018-08-22T22:14:32.788Z,23.17
2018-08-22T22:17:02.094Z,23.13
2018-08-22T22:19:31.669Z,23.06
2018-08-22T22:22:00.744Z,23.02
2018-08-22T22:24:29.039Z,22.98
2018-08-22T22:26:57.479Z,22.94
2018-08-22T22:29:30.944Z,22.89
2018-08-22T22:31:59.468Z,22.82
2018-08-22T22:34:28.096Z,22.75
2018-08-22T22:36:56.547Z,22.70
2018-08-22T22:39:36.725Z,22.67
2018-08-22T22:42:14.648Z,22.70
2018-08-22T22:44:50.232Z,22.74
2018-08-22T22:47:24.149Z,22.67
2018-08-22T22:49:52.985Z,22.63
2018-08-22T22:52:44.865Z,22.62
2018-08-22T22:55:13.440Z,22.58
2018-08-22T22:57:42.940Z,22.55
2018-08-22T23:00:13.145Z,22.50
2018-08-22T23:02:42.999Z,22.48
2018-08-22T23:05:11.491Z,22.45
2018-08-22T23:07:41.897Z,22.42
2018-08-22T23:10:14.213Z,22.52
2018-08-22T23:12:43.817Z,22.54
2018-08-22T23:15:16.091Z,22.54
2018-08-22T23:17:46.180Z,22.45
2018-08-22T23:20:40.229Z,22.38
2018-08-22T23:23:35.605Z,22.29
2018-08-22T23:26:11.525Z,22.30
2018-08-22T23:28:40.457Z,22.26
2018-08-22T23:31:08.800Z,22.23
2018-08-22T23:33:37.933Z,22.18
2018-08-22T23:36:06.657Z,22.15
2018-08-22T23:38:36.629Z,22.12
2018-08-22T23:41:05.136Z,22.10
2018-08-22T23:43:40.094Z,22.03
2018-08-22T23:46:09.956Z,21.96
2018-08-22T23:48:38.763Z,21.98
2018-08-22T23:51:10.553Z,21.97
2018-08-22T23:53:55.037Z,21.96
2018-08-22T23:56:28.264Z,22.04
2018-08-22T23:58:57.056Z,22.02
